createdAt,value
2023-02-12T00:02:03.278Z,103719.16
2023-02-12T00:04:33.166Z,103713.66
2023-02-12T00:07:05.543Z,103717.56
2023-02-12T00:09:35.407Z,103716.66
2023-02-12T00:12:05.469Z,103720.03
2023-02-12T00:14:35.231Z,103727.75
2023-02-12T00:17:04.986Z,103721.63
2023-02-12T00:19:34.846Z,103716.38
2023-02-12T00:22:07.201Z,103714.50
2023-02-12T00:24:36.982Z,103715.31
2023-02-12T00:27:06.835Z,103712.69
2023-02-12T00:29:36.632Z,103713.59
2023-02-12T00:32:06.412Z,103718.84
2023-02-12T00:34:36.259Z,103708.34
2023-02-12T00:37:08.831Z,103710.19
2023-02-12T00:39:39.321Z,103709.44
2023-02-12T00:42:09.291Z,103703.13
2023-02-12T00:44:39.197Z,103710.19
2023-02-12T00:47:08.965Z,103711.13
2023-02-12T00:49:38.731Z,103712.03
2023-02-12T00:52:11.355Z,103707.88
2023-02-12T00:54:41.319Z,103722.16
2023-02-12T00:57:11.089Z,103712.59
2023-02-12T00:59:42.405Z,103716.28
2023-02-12T01:02:12.191Z,103723.34
2023-02-12T01:04:42.102Z,103724.13
2023-02-12T01:07:14.684Z,103717.06
2023-02-12T01:09:44.467Z,103723.97
2023-02-12T01:12:14.248Z,103722.31
2023-02-12T01:14:44.007Z,103722.31
2023-02-12T01:17:13.895Z,103725.84
2023-02-12T01:19:43.685Z,103719.69
2023-02-12T01:22:16.106Z,103727.56
2023-02-12T01:24:46.176Z,103730.16
2023-02-12T01:27:16.008Z,103732.91
2023-02-12T01:29:45.997Z,103727.81
2023-02-12T01:32:15.841Z,103731.50
2023-02-12T01:34:45.635Z,103722.06
2023-02-12T01:37:18.020Z,103724.06
2023-02-12T01:39:47.771Z,103726.81
2023-02-12T01:42:19.114Z,103723.28
2023-02-12T01:45:09.534Z,103727.59
2023-02-12T01:47:39.270Z,103718.03
2023-02-12T01:50:13.449Z,103723.44
2023-02-12T01:52:50.783Z,103726.06
2023-02-12T01:55:22.395Z,103724.19
2023-02-12T01:57:52.962Z,103718.84
2023-02-12T02:00:25.603Z,103717.88
2023-02-12T02:02:58.422Z,103723.44
2023-02-12T02:05:34.177Z,103727.59
2023-02-12T02:08:07.032Z,103724.19
2023-02-12T02:10:36.785Z,103719.75
2023-02-12T02:13:19.192Z,103720.66
2023-02-12T02:15:52.378Z,103715.41
2023-02-12T02:18:28.527Z,103721.56
2023-02-12T02:21:30.193Z,103718.84
2023-02-12T02:24:20.942Z,103722.06
2023-02-12T02:27:14.220Z,103719.44
2023-02-12T02:30:15.564Z,103715.16
2023-02-12T02:32:52.923Z,103715.91
2023-02-12T02:35:30.582Z,103719.44
2023-02-12T02:38:10.667Z,103718.09
2023-02-12T02:40:48.552Z,103716.00
2023-02-12T02:43:22.193Z,103715.72
2023-02-12T02:45:58.822Z,103710.50
2023-02-12T02:48:33.985Z,103707.72
2023-02-12T02:51:07.678Z,103716.38
2023-02-12T02:53:42.611Z,103711.78
2023-02-12T02:56:17.746Z,103713.59
2023-02-12T02:58:51.523Z,103706.53
2023-02-12T03:01:27.134Z,103704.69
2023-02-12T03:04:04.758Z,103706.38
2023-02-12T03:06:40.639Z,103709.00
2023-02-12T03:09:18.715Z,103708.09
2023-02-12T03:11:51.002Z,103711.63
2023-02-12T03:14:25.071Z,103706.22
2023-02-12T03:17:01.470Z,103713.31
2023-02-12T03:19:39.051Z,103718.56
2023-02-12T03:22:12.167Z,103714.25
2023-02-12T03:24:46.023Z,103714.41
2023-02-12T03:27:22.518Z,103711.78
2023-02-12T03:29:52.428Z,103715.31
2023-02-12T03:32:33.638Z,103708.34
2023-02-12T03:35:13.146Z,103704.03
2023-02-12T03:37:49.439Z,103709.91
2023-02-12T03:40:23.597Z,103711.63
2023-02-12T03:43:00.721Z,103721.03
2023-02-12T03:45:43.469Z,103705.19
2023-02-12T03:48:23.192Z,103714.59
2023-02-12T03:50:57.404Z,103700.44
2023-02-12T03:53:28.682Z,103690.59
2023-02-12T03:56:04.824Z,103695.84
2023-02-12T03:58:38.411Z,103703.69
2023-02-12T04:01:08.852Z,103702.00
2023-02-12T04:03:41.992Z,103702.00
2023-02-12T04:06:23.258Z,103696.91
2023-02-12T04:08:53.089Z,103700.44
2023-02-12T04:11:32.404Z,103697.03
2023-02-12T04:14:25.640Z,103700.59
2023-02-12T04:17:03.051Z,103697.03
2023-02-12T04:19:43.155Z,103707.50
2023-02-12T04:22:26.427Z,103694.28
2023-02-12T04:25:09.958Z,103707.22
2023-02-12T04:27:50.918Z,103698.31
2023-02-12T04:30:25.611Z,103708.66
2023-02-12T04:33:02.474Z,103708.50
2023-02-12T04:35:39.665Z,103713.91
2023-02-12T04:38:14.418Z,103717.28
2023-02-12T04:40:45.518Z,103712.19
2023-02-12T04:43:15.301Z,103715.56
2023-02-12T04:45:45.354Z,103711.91
2023-02-12T04:48:15.163Z,103713.47
2023-02-12T04:50:47.525Z,103713.31
2023-02-12T04:53:17.423Z,103711.63
2023-02-12T04:55:47.822Z,103715.03
2023-02-12T04:58:17.593Z,103715.94
2023-02-12T05:00:47.499Z,103720.25
2023-02-12T05:03:17.262Z,103729.03
2023-02-12T05:05:49.764Z,103735.97
2023-02-12T05:08:19.531Z,103734.16
2023-02-12T05:10:49.289Z,103742.91
2023-02-12T05:13:19.026Z,103741.38
2023-02-12T05:15:48.791Z,103737.81
2023-02-12T05:18:18.642Z,103737.03
2023-02-12T05:20:58.473Z,103744.91
2023-02-12T05:23:30.089Z,103735.97
2023-02-12T05:26:02.458Z,103740.41
2023-02-12T05:28:32.693Z,103738.75
2023-02-12T05:31:03.677Z,103738.75
2023-02-12T05:33:33.769Z,103739.66
2023-02-12T05:36:12.517Z,103743.84
2023-02-12T05:38:42.806Z,103740.13
2023-02-12T05:41:14.596Z,103738.44
2023-02-12T05:43:45.616Z,103733.84
2023-02-12T05:46:16.745Z,103746.81
2023-02-12T05:48:46.534Z,103754.50
2023-02-12T05:51:22.226Z,103742.22
2023-02-12T05:53:52.965Z,103752.41
2023-02-12T05:56:24.298Z,103750.25
2023-02-12T05:58:57.151Z,103741.06
2023-02-12T06:01:31.430Z,103747.09
2023-02-12T06:04:02.642Z,103745.22
2023-02-12T06:06:36.522Z,103751.38
2023-02-12T06:09:06.424Z,103758.19
2023-02-12T06:11:36.199Z,103757.25
2023-02-12T06:14:06.525Z,103759.84
2023-02-12T06:16:37.818Z,103765.88
2023-02-12T06:19:09.417Z,103765.09
2023-02-12T06:21:41.904Z,103762.47
2023-02-12T06:24:12.895Z,103770.34
2023-02-12T06:26:42.787Z,103772.31
2023-02-12T06:29:13.376Z,103774.31
2023-02-12T06:31:43.511Z,103778.00
2023-02-12T06:34:18.185Z,103779.06
2023-02-12T06:36:51.256Z,103785.38
2023-02-12T06:39:21.014Z,103785.50
2023-02-12T06:41:50.833Z,103786.44
2023-02-12T06:44:20.610Z,103798.59
2023-02-12T06:46:50.440Z,103798.75
2023-02-12T06:49:20.226Z,103806.75
2023-02-12T06:51:52.588Z,103806.88
2023-02-12T06:54:22.374Z,103808.44
2023-02-12T06:56:52.144Z,103813.81
2023-02-12T06:59:22.033Z,103813.81
2023-02-12T07:01:52.004Z,103812.91
2023-02-12T07:04:21.853Z,103813.66
2023-02-12T07:06:54.805Z,103811.03
2023-02-12T07:09:24.657Z,103819.84
2023-02-12T07:11:56.822Z,103812.91
2023-02-12T07:14:26.839Z,103821.84
2023-02-12T07:16:57.447Z,103821.03
2023-02-12T07:19:27.517Z,103822.88
2023-02-12T07:22:00.124Z,103821.31
2023-02-12T07:24:30.031Z,103830.25
2023-02-12T07:26:59.801Z,103832.09
2023-02-12T07:29:29.550Z,103823.47
2023-02-12T07:31:59.442Z,103835.66
2023-02-12T07:34:29.329Z,103833.94
2023-02-12T07:37:01.731Z,103845.19
2023-02-12T07:39:31.555Z,103841.81
2023-02-12T07:42:01.512Z,103842.88
2023-02-12T07:44:32.494Z,103849.03
2023-02-12T07:47:03.850Z,103848.22
2023-02-12T07:49:33.669Z,103856.09
2023-02-12T07:52:06.199Z,103853.34
2023-02-12T07:54:36.191Z,103855.97
2023-02-12T07:57:06.226Z,103856.88
2023-02-12T07:59:36.236Z,103854.25
2023-02-12T08:02:06.065Z,103859.50
2023-02-12T08:04:35.911Z,103853.47
2023-02-12T08:07:08.280Z,103854.53
2023-02-12T08:09:38.275Z,103848.66
2023-02-12T08:12:08.538Z,103851.44
2023-02-12T08:14:38.397Z,103851.56
2023-02-12T08:17:08.821Z,103861.28
2023-02-12T08:19:38.927Z,103859.59
2023-02-12T08:22:11.611Z,103869.44
2023-02-12T08:24:42.596Z,103867.88
2023-02-12T08:27:12.386Z,103875.13
2023-02-12T08:29:42.167Z,103867.38
2023-02-12T08:32:14.562Z,103864.13
2023-02-12T08:34:44.737Z,103866.91
2023-02-12T08:37:17.110Z,103870.72
2023-02-12T08:39:46.919Z,103871.66
2023-02-12T08:42:16.687Z,103874.41
2023-02-12T08:44:46.447Z,103865.91
2023-02-12T08:47:16.218Z,103878.38
2023-02-12T08:49:46.014Z,103867.78
2023-02-12T08:52:19.608Z,103875.91
2023-02-12T08:54:49.520Z,103875.91
2023-02-12T08:57:19.272Z,103886.66
2023-02-12T08:59:49.221Z,103891.28
2023-02-12T09:02:19.361Z,103879.25
2023-02-12T09:04:49.173Z,103881.06
2023-02-12T09:07:21.564Z,103882.41
2023-02-12T09:09:51.351Z,103882.41
2023-02-12T09:12:21.154Z,103873.00
2023-02-12T09:14:52.022Z,103875.00
2023-02-12T09:17:21.840Z,103876.97
2023-02-12T09:19:51.570Z,103881.56
2023-02-12T09:22:23.923Z,103884.00
2023-02-12T09:24:53.676Z,103879.03
2023-02-12T09:27:23.508Z,103885.50
2023-02-12T09:29:53.267Z,103884.84
2023-02-12T09:32:23.014Z,103886.69
2023-02-12T09:34:52.799Z,103887.91
2023-02-12T09:37:25.160Z,103891.72
2023-02-12T09:39:54.944Z,103881.50
2023-02-12T09:42:37.972Z,103883.66
2023-02-12T09:45:16.729Z,103890.25
2023-02-12T09:47:54.449Z,103888.03
2023-02-12T09:50:45.966Z,103892.91
2023-02-12T09:53:26.062Z,103895.06
2023-02-12T09:55:56.243Z,103890.06
2023-02-12T09:58:35.668Z,103893.13
2023-02-12T10:01:14.755Z,103894.16
2023-02-12T10:03:46.300Z,103899.56
2023-02-12T10:06:19.847Z,103904.16
2023-02-12T10:09:17.983Z,103907.19
2023-02-12T10:11:59.657Z,103903.03
2023-02-12T10:14:53.835Z,103901.41
2023-02-12T10:17:36.222Z,103898.78
2023-02-12T10:20:35.614Z,103898.94
2023-02-12T10:23:23.343Z,103895.56
2023-02-12T10:25:59.416Z,103905.41
2023-02-12T10:28:33.435Z,103909.06
2023-02-12T10:31:06.502Z,103910.28
2023-02-12T10:33:40.248Z,103907.28
2023-02-12T10:36:22.707Z,103912.28
2023-02-12T10:38:57.436Z,103912.72
2023-02-12T10:41:31.375Z,103910.19
2023-02-12T10:44:01.287Z,103906.16
2023-02-12T10:46:34.047Z,103911.81
2023-02-12T10:49:04.137Z,103908.66
2023-02-12T10:51:59.316Z,103916.94
2023-02-12T10:54:46.657Z,103920.00
2023-02-12T10:57:27.695Z,103918.69
2023-02-12T11:00:00.070Z,103923.41
2023-02-12T11:02:32.821Z,103920.28
2023-02-12T11:05:18.566Z,103922.66
2023-02-12T11:07:54.257Z,103920.53
2023-02-12T11:10:24.923Z,103916.50
2023-02-12T11:12:58.504Z,103921.09
2023-02-12T11:15:31.424Z,103920.28
2023-02-12T11:18:05.682Z,103909.94
2023-02-12T11:20:41.355Z,103913.72
2023-02-12T11:23:27.324Z,103908.88
2023-02-12T11:26:00.491Z,103902.16
2023-02-12T11:28:34.396Z,103902.56
2023-02-12T11:31:07.041Z,103897.69
2023-02-12T11:33:38.126Z,103895.31
2023-02-12T11:36:18.184Z,103887.97
2023-02-12T11:38:54.569Z,103886.66
2023-02-12T11:41:29.528Z,103881.13
2023-02-12T11:44:02.008Z,103886.09
2023-02-12T11:46:32.014Z,103882.25
2023-02-12T11:49:02.169Z,103879.38
2023-02-12T11:51:34.823Z,103879.13
2023-02-12T11:54:06.933Z,103881.31
2023-02-12T11:56:45.641Z,103882.63
2023-02-12T11:59:30.461Z,103869.72
2023-02-12T12:02:04.851Z,103871.81
2023-02-12T12:04:37.480Z,103874.16
2023-02-12T12:07:15.518Z,103870.19
2023-02-12T12:09:50.413Z,103868.94
2023-02-12T12:12:24.774Z,103862.38
2023-02-12T12:15:14.711Z,103863.53
2023-02-12T12:18:02.066Z,103863.78
2023-02-12T12:20:39.532Z,103863.00
2023-02-12T12:23:14.074Z,103864.00
2023-02-12T12:25:49.366Z,103859.03
2023-02-12T12:28:32.064Z,103856.50
2023-02-12T12:31:17.563Z,103850.97
2023-02-12T12:33:50.759Z,103848.22
2023-02-12T12:37:05.448Z,103854.53
2023-02-12T12:39:39.567Z,103846.38
2023-02-12T12:42:34.288Z,103850.75
2023-02-12T12:45:22.231Z,103850.38
2023-02-12T12:48:12.908Z,103847.22
2023-02-12T12:51:08.524Z,103853.06
2023-02-12T12:53:49.933Z,103848.88
2023-02-12T12:56:30.654Z,103847.69
2023-02-12T12:59:30.296Z,103849.19
2023-02-12T13:02:24.887Z,103841.81
2023-02-12T13:05:26.030Z,103835.25
2023-02-12T13:08:06.636Z,103835.00
2023-02-12T13:10:43.162Z,103830.28
2023-02-12T13:13:23.599Z,103812.41
2023-02-12T13:15:59.132Z,103818.47
2023-02-12T13:18:43.918Z,103822.00
2023-02-12T13:21:24.243Z,103819.50
2023-02-12T13:23:57.609Z,103816.88
2023-02-12T13:26:33.101Z,103812.66
2023-02-12T13:29:10.020Z,103814.50
2023-02-12T13:31:51.056Z,103812.00
2023-02-12T13:34:21.996Z,103816.44
2023-02-12T13:36:54.635Z,103820.28
2023-02-12T13:39:34.185Z,103814.34
2023-02-12T13:42:19.586Z,103808.41
2023-02-12T13:45:00.207Z,103807.59
2023-02-12T13:47:38.124Z,103806.81
2023-02-12T13:50:22.082Z,103809.69
2023-02-12T13:53:01.585Z,103797.06
2023-02-12T13:55:36.906Z,103804.72
2023-02-12T13:58:37.631Z,103802.91
2023-02-12T14:01:10.276Z,103812.38
2023-02-12T14:03:40.778Z,103815.91
2023-02-12T14:06:13.110Z,103823.00
2023-02-12T14:08:48.007Z,103822.75
2023-02-12T14:11:20.585Z,103819.88
2023-02-12T14:13:56.915Z,103818.69
2023-02-12T14:16:41.710Z,103817.69
2023-02-12T14:19:41.443Z,103826.09
2023-02-12T14:22:16.300Z,103820.47
2023-02-12T14:24:58.800Z,103812.28
2023-02-12T14:27:33.780Z,103820.84
2023-02-12T14:30:28.012Z,103814.53
2023-02-12T14:33:22.854Z,103820.34
2023-02-12T14:36:17.016Z,103814.94
2023-02-12T14:39:07.831Z,103813.13
2023-02-12T14:41:41.985Z,103810.34
2023-02-12T14:44:44.661Z,103813.91
2023-02-12T14:47:34.093Z,103813.91
2023-02-12T14:50:09.309Z,103800.50
2023-02-12T14:52:43.510Z,103807.59
2023-02-12T14:55:25.149Z,103804.56
2023-02-12T14:58:01.671Z,103804.47
2023-02-12T15:00:35.582Z,103799.19
2023-02-12T15:03:18.958Z,103798.41
2023-02-12T15:05:55.854Z,103799.31
2023-02-12T15:08:44.054Z,103801.94
2023-02-12T15:11:24.236Z,103799.19
2023-02-12T15:14:02.183Z,103797.47
2023-02-12T15:16:43.070Z,103798.41
2023-02-12T15:19:27.446Z,103803.00
2023-02-12T15:21:57.646Z,103800.25
2023-02-12T15:24:29.376Z,103797.63
2023-02-12T15:27:01.577Z,103796.69
2023-02-12T15:29:43.949Z,103804.56
2023-02-12T15:32:22.056Z,103802.75
2023-02-12T15:34:53.116Z,103799.31
2023-02-12T15:37:26.098Z,103800.25
2023-02-12T15:39:59.365Z,103802.06
2023-02-12T15:42:32.367Z,103801.28
2023-02-12T15:45:24.819Z,103795.09
2023-02-12T15:48:13.261Z,103795.91
2023-02-12T15:50:54.228Z,103802.88
2023-02-12T15:53:26.210Z,103793.13
2023-02-12T15:55:56.471Z,103790.50
2023-02-12T15:58:29.684Z,103791.31
2023-02-12T16:01:04.626Z,103796.44
2023-02-12T16:03:36.534Z,103798.00
2023-02-12T16:06:11.429Z,103789.34
2023-02-12T16:08:43.044Z,103787.63
2023-02-12T16:11:16.642Z,103789.34
2023-02-12T16:13:49.735Z,103781.47
2023-02-12T16:16:26.353Z,103786.06
2023-02-12T16:19:10.811Z,103781.69
2023-02-12T16:21:41.970Z,103783.19
2023-02-12T16:24:25.520Z,103780.66
2023-02-12T16:26:55.710Z,103783.03
2023-02-12T16:29:25.726Z,103786.47
2023-02-12T16:32:01.335Z,103797.00
2023-02-12T16:34:34.540Z,103797.00
2023-02-12T16:37:05.082Z,103797.91
2023-02-12T16:40:07.437Z,103798.81
2023-02-12T16:42:37.214Z,103801.31
2023-02-12T16:45:37.297Z,103802.25
2023-02-12T16:48:18.939Z,103805.66
2023-02-12T16:50:52.200Z,103809.19
2023-02-12T16:53:43.767Z,103810.91
2023-02-12T16:56:21.306Z,103819.72
2023-02-12T16:58:55.316Z,103816.97
2023-02-12T17:01:28.011Z,103817.75
2023-02-12T17:04:02.436Z,103818.69
2023-02-12T17:06:34.215Z,103818.53
2023-02-12T17:09:04.098Z,103826.28
2023-02-12T17:11:33.934Z,103828.00
2023-02-12T17:14:03.695Z,103838.53
2023-02-12T17:16:33.469Z,103839.44
2023-02-12T17:19:05.848Z,103830.78
2023-02-12T17:21:39.692Z,103836.94
2023-02-12T17:24:14.353Z,103838.78
2023-02-12T17:26:44.135Z,103844.97
2023-02-12T17:29:14.026Z,103838.78
2023-02-12T17:31:43.842Z,103852.88
2023-02-12T17:34:17.344Z,103854.56
2023-02-12T17:36:47.146Z,103851.94
2023-02-12T17:39:19.479Z,103860.75
2023-02-12T17:41:49.787Z,103852.06
2023-02-12T17:44:19.645Z,103850.09
2023-02-12T17:46:49.456Z,103864.16
2023-02-12T17:49:21.914Z,103863.25
2023-02-12T17:51:51.754Z,103862.44
2023-02-12T17:54:21.740Z,103865.06
2023-02-12T17:56:51.590Z,103867.59
2023-02-12T17:59:21.526Z,103863.91
2023-02-12T18:01:51.328Z,103864.72
2023-02-12T18:04:23.747Z,103872.59
2023-02-12T18:06:53.532Z,103864.81
2023-02-12T18:09:23.296Z,103865.72
2023-02-12T18:11:53.056Z,103871.00
2023-02-12T18:14:22.912Z,103869.16
2023-02-12T18:16:52.685Z,103864.81
2023-02-12T18:19:25.060Z,103863.09
2023-02-12T18:21:54.831Z,103866.69
2023-02-12T18:24:24.704Z,103864.81
2023-02-12T18:26:54.530Z,103863.75
2023-02-12T18:29:24.279Z,103861.28
2023-02-12T18:31:54.279Z,103869.16
2023-02-12T18:34:27.011Z,103871.00
2023-02-12T18:36:56.971Z,103863.00
2023-02-12T18:39:26.762Z,103863.75
2023-02-12T18:41:56.582Z,103875.22
2023-02-12T18:44:26.341Z,103866.41
2023-02-12T18:46:57.478Z,103860.13
2023-02-12T18:49:30.281Z,103862.75
2023-02-12T18:52:00.038Z,103871.41
2023-02-12T18:54:29.821Z,103868.53
2023-02-12T18:56:59.604Z,103858.16
2023-02-12T18:59:29.463Z,103855.38
2023-02-12T19:01:59.337Z,103872.97
2023-02-12T19:04:31.791Z,103875.59
2023-02-12T19:07:01.615Z,103875.25
2023-02-12T19:09:31.365Z,103869.84
2023-02-12T19:12:02.064Z,103865.34
2023-02-12T19:14:31.998Z,103872.97
2023-02-12T19:17:01.827Z,103869.28
2023-02-12T19:19:34.219Z,103870.25
2023-02-12T19:22:03.959Z,103868.28
2023-02-12T19:24:45.944Z,103870.09
2023-02-12T19:27:16.279Z,103870.09
2023-02-12T19:29:46.394Z,103872.59
2023-02-12T19:32:16.183Z,103871.66
2023-02-12T19:34:48.840Z,103864.59
2023-02-12T19:37:18.619Z,103862.72
2023-02-12T19:39:48.373Z,103858.28
2023-02-12T19:42:18.170Z,103864.34
2023-02-12T19:44:48.028Z,103862.47
2023-02-12T19:47:17.889Z,103857.88
2023-02-12T19:49:50.366Z,103857.63
2023-02-12T19:52:20.147Z,103868.00
2023-02-12T19:54:49.900Z,103863.38
2023-02-12T19:57:19.667Z,103875.63
2023-02-12T19:59:49.562Z,103867.47
2023-02-12T20:02:19.416Z,103862.22
2023-02-12T20:04:51.788Z,103854.34
2023-02-12T20:07:21.555Z,103855.91
2023-02-12T20:09:53.363Z,103854.06
2023-02-12T20:12:23.138Z,103853.94
2023-02-12T20:14:52.903Z,103858.13
2023-02-12T20:17:22.635Z,103861.28
2023-02-12T20:19:54.980Z,103860.09
2023-02-12T20:22:24.756Z,103863.53
2023-02-12T20:24:54.529Z,103860.75
2023-02-12T20:27:24.278Z,103864.94
2023-02-12T20:29:54.059Z,103859.56
2023-02-12T20:32:23.807Z,103857.72
2023-02-12T20:34:56.576Z,103861.13
2023-02-12T20:37:26.322Z,103856.69
2023-02-12T20:39:56.084Z,103850.38
2023-02-12T20:42:25.856Z,103857.44
2023-02-12T20:44:55.658Z,103858.38
2023-02-12T20:47:29.021Z,103859.03
2023-02-12T20:50:01.459Z,103858.91
2023-02-12T20:52:32.183Z,103858.00
2023-02-12T20:55:01.980Z,103854.31
2023-02-12T20:57:33.657Z,103854.16
2023-02-12T21:00:03.522Z,103856.69
2023-02-12T21:02:33.380Z,103856.53
2023-02-12T21:05:06.019Z,103860.72
2023-02-12T21:07:35.791Z,103863.84
2023-02-12T21:10:05.554Z,103868.72
2023-02-12T21:12:35.315Z,103860.69
2023-02-12T21:15:05.211Z,103856.09
2023-02-12T21:17:35.772Z,103859.53
2023-02-12T21:20:12.604Z,103868.16
2023-02-12T21:22:42.384Z,103864.47
2023-02-12T21:25:12.241Z,103866.34
2023-02-12T21:27:42.476Z,103867.41
2023-02-12T21:30:12.887Z,103866.44
2023-02-12T21:32:42.663Z,103873.41
2023-02-12T21:35:15.024Z,103874.47
2023-02-12T21:37:44.820Z,103872.75
2023-02-12T21:40:15.479Z,103867.41
2023-02-12T21:42:45.246Z,103871.69
2023-02-12T21:45:15.000Z,103863.72
2023-02-12T21:47:44.753Z,103864.47
2023-02-12T21:50:17.224Z,103861.84
2023-02-12T21:52:47.006Z,103860.94
2023-02-12T21:55:16.859Z,103858.03
2023-02-12T21:57:47.436Z,103852.66
2023-02-12T22:00:18.644Z,103844.78
2023-02-12T22:02:48.478Z,103852.53
2023-02-12T22:05:20.980Z,103844.41
2023-02-12T22:07:51.863Z,103844.09
2023-02-12T22:10:22.001Z,103850.28
2023-02-12T22:12:51.743Z,103851.06
2023-02-12T22:15:21.624Z,103845.03
2023-02-12T22:17:51.382Z,103843.34
2023-02-12T22:20:23.894Z,103846.88
2023-02-12T22:22:53.643Z,103852.91
2023-02-12T22:25:23.409Z,103856.47
2023-02-12T22:27:53.201Z,103848.44
2023-02-12T22:30:23.247Z,103845.03
2023-02-12T22:32:52.979Z,103847.78
2023-02-12T22:35:25.332Z,103851.31
2023-02-12T22:37:55.066Z,103847.94
2023-02-12T22:40:25.054Z,103858.53
2023-02-12T22:42:54.810Z,103849.00
2023-02-12T22:45:24.624Z,103851.63
2023-02-12T22:47:54.404Z,103854.25
2023-02-12T22:50:26.840Z,103854.91
2023-02-12T22:52:56.578Z,103849.50
2023-02-12T22:55:26.324Z,103855.53
2023-02-12T22:57:56.082Z,103850.28
2023-02-12T23:00:25.973Z,103851.06
2023-02-12T23:02:55.715Z,103843.84
2023-02-12T23:05:28.266Z,103844.47
2023-02-12T23:07:58.067Z,103845.28
2023-02-12T23:10:27.826Z,103848.41
2023-02-12T23:12:57.580Z,103844.88
2023-02-12T23:15:27.430Z,103838.69
2023-02-12T23:17:57.228Z,103848.41
2023-02-12T23:20:29.662Z,103845.78
2023-02-12T23:22:59.423Z,103837.75
2023-02-12T23:25:29.200Z,103845.78
2023-02-12T23:27:59.140Z,103841.44
2023-02-12T23:30:28.978Z,103841.44
2023-02-12T23:32:59.125Z,103837.00
2023-02-12T23:35:31.720Z,103834.22
2023-02-12T23:38:01.464Z,103835.94
2023-02-12T23:40:31.233Z,103835.00
2023-02-12T23:43:01.029Z,103837.63
2023-02-12T23:45:31.580Z,103834.09
2023-02-12T23:48:01.362Z,103830.69
2023-02-12T23:50:33.777Z,103823.06
2023-02-12T23:53:03.565Z,103830.03
2023-02-12T23:55:33.326Z,103833.72
2023-02-12T23:58:05.117Z,103822.41
